Time;durP1;ratioP1;P1;durP2;ratioP2;P2;SDS_P1;SDS_P2;PMS_P1;PMS_P2;Temp;Humidity;BMP_temperature;BMP_pressure;BME280_temperature;BME280_humidity;BME280_pressure;Samples;Min_cycle;Max_cycle;Signal;HPM_P1;HPM_P2
2023/08/18 00:00:57;;;;;;;1.73;1.63;;;;;;;29.83;47.67;98690.69;2074548;28;20046;-53
2023/08/18 00:01:59;;;;;;;1.92;1.83;;;;;;;29.85;47.60;98687.69;2074709;28;20148;-50
2023/08/18 00:03:01;;;;;;;2.28;2.08;;;;;;;29.84;47.73;98677.88;2076266;28;20072;-52
2023/08/18 00:04:03;;;;;;;1.80;1.70;;;;;;;29.83;47.68;98679.75;2074213;28;20140;-53
2023/08/18 00:05:04;;;;;;;2.30;2.10;;;;;;;29.84;47.62;98681.41;2077609;28;20045;-53
2023/08/18 00:06:06;;;;;;;2.45;1.95;;;;;;;29.83;47.89;98681.69;2074172;28;20046;-50
2023/08/18 00:07:07;;;;;;;2.10;1.98;;;;;;;29.83;47.63;98682.50;2078011;28;20057;-51
2023/08/18 00:08:09;;;;;;;2.05;1.95;;;;;;;29.83;47.64;98684.41;2074505;28;20072;-54
2023/08/18 00:09:10;;;;;;;1.67;1.58;;;;;;;29.84;47.27;98688.81;2078878;28;20049;-54
2023/08/18 00:10:12;;;;;;;2.13;1.92;;;;;;;29.84;47.50;98686.88;2075309;28;20144;-54
2023/08/18 00:11:13;;;;;;;1.73;1.50;;;;;;;29.82;47.50;98685.53;2077307;28;20500;-51
2023/08/18 00:12:13;;;;;;;2.25;1.98;;;;;;;29.83;47.40;98684.41;2076171;28;20303;-53
2023/08/18 00:13:15;;;;;;;2.03;1.80;;;;;;;29.83;47.54;98687.16;2076683;28;20105;-51
2023/08/18 00:14:17;;;;;;;2.00;1.90;;;;;;;29.84;47.34;98694.28;2077279;28;20077;-55
2023/08/18 00:15:19;;;;;;;3.63;1.98;;;;;;;29.82;47.65;98688.25;2078262;28;20053;-53
2023/08/18 00:16:20;;;;;;;2.03;1.83;;;;;;;29.83;47.90;98682.50;2079543;28;20041;-54
2023/08/18 00:17:22;;;;;;;1.92;1.83;;;;;;;29.83;47.68;98689.88;2076914;28;20056;-54
2023/08/18 00:18:23;;;;;;;3.28;1.55;;;;;;;29.82;47.58;98686.34;2078521;28;20068;-51
2023/08/18 00:19:24;;;;;;;2.50;2.10;;;;;;;29.81;47.58;98687.44;2083748;28;20064;-50
2023/08/18 00:20:25;;;;;;;2.00;1.80;;;;;;;29.82;47.85;98691.00;2086722;28;20419;-50
2023/08/18 00:21:27;;;;;;;1.67;1.55;;;;;;;29.83;47.58;98687.16;2087115;28;20151;-51
2023/08/18 00:22:28;;;;;;;2.97;2.38;;;;;;;29.81;47.44;98692.06;2086980;28;20283;-54
2023/08/18 00:23:30;;;;;;;1.67;1.58;;;;;;;29.82;47.44;98693.72;2085080;28;20513;-51
2023/08/18 00:24:31;;;;;;;1.80;1.70;;;;;;;29.82;47.77;98691.00;2088449;28;20056;-50
2023/08/18 00:25:32;;;;;;;1.85;1.75;;;;;;;29.81;47.48;98694.78;2084151;28;20536;-51
2023/08/18 00:26:34;;;;;;;2.58;2.05;;;;;;;29.82;47.65;98696.44;2086410;28;20138;-52
2023/08/18 00:27:36;;;;;;;2.10;2.00;;;;;;;29.82;47.66;98693.72;2086177;28;20120;-51
2023/08/18 00:28:36;;;;;;;2.25;1.85;;;;;;;29.84;47.61;98699.75;2078245;28;20261;-54
2023/08/18 00:29:40;;;;;;;1.73;1.63;;;;;;;29.84;47.58;98702.47;2076790;28;20140;-54
2023/08/18 00:30:41;;;;;;;2.65;2.45;;;;;;;29.83;47.80;98706.28;2078653;28;20308;-52
2023/08/18 00:31:41;;;;;;;1.95;1.77;;;;;;;29.83;47.76;98698.09;2078703;28;20049;-52
2023/08/18 00:32:43;;;;;;;1.83;1.70;;;;;;;29.83;47.56;98703.56;2078735;28;20053;-53
2023/08/18 00:33:44;;;;;;;2.65;1.95;;;;;;;29.83;47.62;98700.81;2076416;28;20056;-50
2023/08/18 00:34:46;;;;;;;2.45;2.00;;;;;;;29.81;47.87;98698.38;2079314;28;20045;-53
2023/08/18 00:35:47;;;;;;;1.58;1.48;;;;;;;29.83;47.41;98696.16;2077142;28;20049;-50
2023/08/18 00:36:47;;;;;;;2.15;1.98;;;;;;;29.82;47.72;98697.28;2079488;28;20136;-51
2023/08/18 00:37:49;;;;;;;2.72;2.40;;;;;;;29.81;47.27;98695.63;2076930;28;20050;-51
2023/08/18 00:38:50;;;;;;;1.75;1.65;;;;;;;29.82;47.70;98696.44;2078334;28;20049;-53
2023/08/18 00:39:52;;;;;;;3.00;1.77;;;;;;;29.81;47.72;98698.38;2076176;28;20071;-52
2023/08/18 00:40:55;;;;;;;2.97;1.90;;;;;;;29.81;47.48;98694.78;2080606;28;20099;-52
2023/08/18 00:41:57;;;;;;;3.25;1.90;;;;;;;29.81;47.53;98697.53;2077186;28;20042;-51
2023/08/18 00:42:58;;;;;;;2.10;1.90;;;;;;;29.81;47.38;98694.78;2080775;28;20049;-52
2023/08/18 00:44:00;;;;;;;2.15;2.03;;;;;;;29.80;47.64;98695.91;2077279;28;20121;-53
2023/08/18 00:45:02;;;;;;;1.70;1.60;;;;;;;29.82;47.45;98697.28;2079613;28;20037;-50
2023/08/18 00:46:04;;;;;;;1.77;1.67;;;;;;;29.81;47.64;98692.06;2076800;28;20347;-49
2023/08/18 00:47:05;;;;;;;2.20;1.92;;;;;;;29.81;47.60;98692.06;2079916;28;20045;-53
2023/08/18 00:48:07;;;;;;;1.60;1.50;;;;;;;29.80;47.74;98690.44;2078477;28;20045;-53
2023/08/18 00:49:09;;;;;;;2.10;1.90;;;;;;;29.81;47.86;98687.44;2079688;28;20049;-54
2023/08/18 00:50:12;;;;;;;2.13;1.98;;;;;;;29.82;47.62;98696.44;2079727;28;20099;-51
2023/08/18 00:51:13;;;;;;;2.05;1.85;;;;;;;29.81;47.51;98689.34;2078474;28;20053;-50
2023/08/18 00:52:17;;;;;;;2.17;1.98;;;;;;;29.82;47.58;98688.25;2077528;28;20173;-49
2023/08/18 00:53:18;;;;;;;2.40;1.98;;;;;;;29.80;47.74;98685.78;2081237;28;20060;-53
2023/08/18 00:54:21;;;;;;;2.60;1.83;;;;;;;29.80;47.59;98693.97;2075280;28;20049;-52
2023/08/18 00:55:22;;;;;;;2.03;1.83;;;;;;;29.81;47.74;98686.59;2080711;28;20053;-54
2023/08/18 00:56:24;;;;;;;1.90;1.80;;;;;;;29.80;47.71;98693.16;2079430;28;20049;-50
2023/08/18 00:57:25;;;;;;;1.80;1.70;;;;;;;29.79;47.54;98697.81;2078713;28;20076;-54
2023/08/18 00:58:29;;;;;;;1.83;1.73;;;;;;;29.80;47.73;98690.44;2076573;28;20136;-50
2023/08/18 00:59:30;;;;;;;1.98;1.77;;;;;;;29.81;47.59;98689.34;2078393;28;20049;-54
2023/08/18 01:00:33;;;;;;;2.03;1.83;;;;;;;29.80;47.64;98695.91;2079207;28;20513;-52
2023/08/18 01:01:34;;;;;;;2.05;1.80;;;;;;;29.79;47.51;98697.00;2078021;28;20037;-51
2023/08/18 01:02:36;;;;;;;1.88;1.67;;;;;;;29.81;47.55;98700.25;2078837;28;20157;-54
2023/08/18 01:03:37;;;;;;;2.67;2.05;;;;;;;29.81;47.62;98694.78;2078812;28;20045;-52
2023/08/18 01:04:39;;;;;;;2.28;2.05;;;;;;;29.79;47.71;98695.09;2079029;28;20176;-51
2023/08/18 01:05:40;;;;;;;2.63;2.17;;;;;;;29.80;47.46;98698.63;2079094;28;20046;-51
2023/08/18 01:06:42;;;;;;;2.97;2.05;;;;;;;29.79;47.82;98691.53;2079605;28;20583;-53
2023/08/18 01:07:43;;;;;;;2.33;2.13;;;;;;;29.79;47.56;98692.34;2076444;28;20133;-53
2023/08/18 01:08:45;;;;;;;2.40;1.98;;;;;;;29.79;47.47;98692.34;2078568;28;20052;-52
2023/08/18 01:09:46;;;;;;;1.73;1.63;;;;;;;29.80;47.74;98691.25;2076668;28;20045;-54
2023/08/18 01:10:58;;;;;;;2.25;1.85;;;;;;;29.79;47.65;98689.63;2079836;28;20044;-51
2023/08/18 01:12:08;;;;;;;2.20;2.00;;;;;;;29.77;47.45;98688.25;2077440;28;20045;-51
2023/08/18 01:13:14;;;;;;;2.88;2.03;;;;;;;29.76;47.61;98684.72;2078823;28;20064;-51
2023/08/18 01:14:24;;;;;;;2.17;2.00;;;;;;;29.78;47.73;98681.69;2078494;28;20525;-53
2023/08/18 01:15:33;;;;;;;1.80;1.70;;;;;;;29.78;47.67;98685.25;2076276;28;20056;-53
2023/08/18 01:16:38;;;;;;;1.65;1.45;;;;;;;29.76;47.81;98676.50;2075049;28;20315;-51
2023/08/18 01:17:48;;;;;;;1.90;1.63;;;;;;;29.76;47.60;98681.97;2075079;28;20557;-51
2023/08/18 01:18:50;;;;;;;1.90;1.80;;;;;;;29.76;47.85;98675.69;2079542;28;20503;-54
2023/08/18 01:19:53;;;;;;;1.83;1.73;;;;;;;29.77;47.55;98680.06;2079457;28;20050;-53
2023/08/18 01:20:54;;;;;;;2.45;2.25;;;;;;;29.77;47.73;98682.78;2078070;28;20045;-53
2023/08/18 01:21:58;;;;;;;2.35;1.90;;;;;;;29.78;47.75;98678.94;2079909;28;20053;-50
2023/08/18 01:23:01;;;;;;;1.70;1.52;;;;;;;29.79;47.75;98680.59;2079694;28;20415;-51
2023/08/18 01:24:04;;;;;;;2.38;1.75;;;;;;;29.78;47.72;98676.22;2074550;28;20041;-54
2023/08/18 01:25:05;;;;;;;2.05;1.60;;;;;;;29.78;47.67;98678.94;2074516;28;20112;-51
2023/08/18 01:26:07;;;;;;;2.10;2.00;;;;;;;29.77;47.40;98678.13;2075550;28;20666;-52
2023/08/18 01:27:08;;;;;;;1.90;1.73;;;;;;;29.76;47.83;98673.78;2079783;28;20052;-54
2023/08/18 01:28:10;;;;;;;2.20;2.00;;;;;;;29.77;47.59;98674.59;2076195;28;20410;-50
2023/08/18 01:29:11;;;;;;;2.35;2.05;;;;;;;29.77;47.76;98677.31;2079712;28;20042;-51
2023/08/18 01:30:16;;;;;;;1.77;1.67;;;;;;;29.78;47.54;98676.22;2078499;28;20068;-53
2023/08/18 01:31:22;;;;;;;1.70;1.60;;;;;;;29.76;47.65;98675.69;2077406;28;20095;-53
2023/08/18 01:32:26;;;;;;;1.83;1.67;;;;;;;29.75;47.54;98674.03;2076595;28;20096;-51
2023/08/18 01:33:34;;;;;;;2.03;1.80;;;;;;;29.76;47.82;98672.97;2079260;28;20065;-54
2023/08/18 01:34:41;;;;;;;1.85;1.63;;;;;;;29.75;47.88;98668.56;2078332;28;20045;-57
2023/08/18 01:35:44;;;;;;;1.80;1.70;;;;;;;29.75;47.75;98668.56;2077997;28;20347;-51
2023/08/18 01:36:46;;;;;;;2.22;2.05;;;;;;;29.75;47.70;98657.63;2079765;28;20041;-50
2023/08/18 01:37:50;;;;;;;1.85;1.75;;;;;;;29.75;47.55;98663.09;2078812;28;21045;-50
2023/08/18 01:38:55;;;;;;;2.13;2.03;;;;;;;29.76;47.53;98662.03;2078862;28;20048;-52
2023/08/18 01:39:59;;;;;;;2.97;2.50;;;;;;;29.75;47.69;98658.44;2078104;28;20049;-50
2023/08/18 01:41:01;;;;;;;2.65;1.33;;;;;;;29.75;47.84;98663.91;2078445;28;20557;-52
2023/08/18 01:42:03;;;;;;;1.70;1.60;;;;;;;29.76;47.94;98664.75;2076943;28;20098;-51
2023/08/18 01:43:04;;;;;;;1.67;1.58;;;;;;;29.76;47.76;98664.75;2078649;28;20041;-49
2023/08/18 01:44:07;;;;;;;2.38;2.17;;;;;;;29.76;47.77;98659.28;2077451;28;20099;-52
2023/08/18 01:45:11;;;;;;;2.03;1.83;;;;;;;29.75;47.77;98658.44;2079048;28;20062;-49
2023/08/18 01:46:13;;;;;;;2.17;1.98;;;;;;;29.74;47.71;98662.28;2078460;28;20115;-54
2023/08/18 01:47:13;;;;;;;2.10;1.90;;;;;;;29.75;47.57;98657.63;2081405;28;20084;-50
2023/08/18 01:48:15;;;;;;;2.13;1.92;;;;;;;29.76;47.60;98665.56;2077783;28;20069;-53
2023/08/18 01:49:16;;;;;;;1.85;1.75;;;;;;;29.75;47.47;98655.72;2078681;28;20408;-50
2023/08/18 01:50:18;;;;;;;2.70;1.67;;;;;;;29.75;47.75;98658.44;2075844;28;20045;-54
2023/08/18 01:51:19;;;;;;;1.58;1.48;;;;;;;29.75;47.59;98654.91;2080433;28;20049;-52
2023/08/18 01:52:19;;;;;;;2.13;1.90;;;;;;;29.75;47.68;98652.16;2078128;28;20132;-50
2023/08/18 01:53:21;;;;;;;1.85;1.75;;;;;;;29.76;47.62;98660.09;2079872;28;20138;-49
2023/08/18 01:54:24;;;;;;;1.73;1.63;;;;;;;29.76;47.56;98659.28;2076732;28;20049;-51
2023/08/18 01:55:26;;;;;;;2.20;2.00;;;;;;;29.74;47.64;98662.28;2074196;28;20061;-51
2023/08/18 01:56:27;;;;;;;1.98;1.85;;;;;;;29.75;47.55;98660.38;2076029;28;20139;-53
2023/08/18 01:57:29;;;;;;;2.05;1.75;;;;;;;29.75;47.57;98663.09;2086032;28;20053;-50
2023/08/18 01:58:29;;;;;;;1.95;1.73;;;;;;;29.74;47.70;98656.81;2077384;28;20424;-52
2023/08/18 01:59:31;;;;;;;1.95;1.70;;;;;;;29.74;47.84;98661.47;2077764;28;20047;-49
2023/08/18 02:00:32;;;;;;;1.88;1.58;;;;;;;29.75;47.94;98661.19;2084010;28;20060;-54
2023/08/18 02:01:34;;;;;;;2.70;1.75;;;;;;;29.76;47.68;98664.75;2086002;28;20198;-54
2023/08/18 02:02:35;;;;;;;2.35;2.15;;;;;;;29.75;47.87;98668.56;2085731;28;20045;-51
2023/08/18 02:03:37;;;;;;;1.70;1.58;;;;;;;29.74;47.60;98667.75;2078438;28;20065;-53
2023/08/18 02:04:37;;;;;;;2.40;2.20;;;;;;;29.75;47.54;98663.09;2077853;28;20073;-52
2023/08/18 02:05:39;;;;;;;3.72;2.40;;;;;;;29.74;47.69;98669.69;2077299;28;20048;-52
2023/08/18 02:06:41;;;;;;;2.25;2.05;;;;;;;29.74;47.85;98667.75;2078077;28;20053;-54
2023/08/18 02:07:41;;;;;;;2.03;1.90;;;;;;;29.74;47.84;98665.03;2075331;28;20122;-50
2023/08/18 02:08:43;;;;;;;1.80;1.70;;;;;;;29.74;47.74;98658.75;2077284;28;20050;-52
2023/08/18 02:09:45;;;;;;;1.80;1.70;;;;;;;29.74;47.55;98658.75;2076882;28;20076;-54
2023/08/18 02:10:47;;;;;;;3.47;2.25;;;;;;;29.75;47.95;98654.91;2076612;28;20420;-53
2023/08/18 02:11:48;;;;;;;2.47;1.70;;;;;;;29.74;47.78;98659.56;2078148;28;20373;-51
2023/08/18 02:12:50;;;;;;;2.30;1.90;;;;;;;29.75;47.67;98660.38;2081711;28;20090;-54
2023/08/18 02:13:51;;;;;;;1.98;1.73;;;;;;;29.74;47.41;98659.56;2074563;28;20056;-53
2023/08/18 02:14:53;;;;;;;1.80;1.70;;;;;;;29.74;47.53;98664.22;2075414;28;20128;-53
2023/08/18 02:15:53;;;;;;;2.40;2.10;;;;;;;29.73;47.85;98660.66;2072841;28;20050;-54
2023/08/18 02:16:55;;;;;;;2.15;1.95;;;;;;;29.73;47.81;98657.94;2075197;28;20057;-53
2023/08/18 02:17:57;;;;;;;3.10;2.08;;;;;;;29.74;47.61;98661.47;2077569;28;20643;-52
2023/08/18 02:18:58;;;;;;;2.13;1.92;;;;;;;29.73;47.67;98660.66;2078027;28;20591;-53
2023/08/18 02:20:00;;;;;;;1.92;1.80;;;;;;;29.74;47.62;98664.22;2077569;28;20052;-51
2023/08/18 02:21:02;;;;;;;1.83;1.73;;;;;;;29.74;47.68;98658.75;2081050;28;20076;-52
2023/08/18 02:22:04;;;;;;;1.95;1.85;;;;;;;29.73;47.71;98655.19;2076547;28;20042;-53
2023/08/18 02:23:05;;;;;;;2.22;2.03;;;;;;;29.73;47.75;98659.84;2080976;28;20087;-52
2023/08/18 02:24:07;;;;;;;2.10;2.00;;;;;;;29.72;47.44;98653.53;2076958;28;20068;-52
2023/08/18 02:25:10;;;;;;;1.63;1.52;;;;;;;29.73;47.83;98654.38;2076642;28;20372;-52
2023/08/18 02:26:12;;;;;;;1.77;1.55;;;;;;;29.72;47.58;98648.06;2078357;28;20152;-52
2023/08/18 02:27:12;;;;;;;1.90;1.77;;;;;;;29.72;47.73;98647.25;2076263;28;20500;-53
2023/08/18 02:28:14;;;;;;;2.05;1.92;;;;;;;29.73;47.42;98648.91;2077918;28;20087;-51
2023/08/18 02:29:15;;;;;;;2.05;1.90;;;;;;;29.72;47.75;98652.72;2076554;28;20319;-50
2023/08/18 02:30:17;;;;;;;2.50;2.30;;;;;;;29.72;47.56;98655.47;2077012;28;20515;-51
2023/08/18 02:31:18;;;;;;;1.60;1.50;;;;;;;29.72;47.73;98652.72;2075909;28;20081;-52
2023/08/18 02:32:19;;;;;;;1.75;1.65;;;;;;;29.72;47.96;98655.47;2074713;28;20045;-51
2023/08/18 02:33:21;;;;;;;1.65;1.55;;;;;;;29.73;47.51;98662.59;2075361;28;20052;-52
2023/08/18 02:34:22;;;;;;;2.15;1.95;;;;;;;29.73;47.60;98659.84;2077098;28;20416;-50
2023/08/18 02:35:24;;;;;;;2.65;2.45;;;;;;;29.72;47.65;98666.38;2078263;28;20099;-52
2023/08/18 02:36:25;;;;;;;1.92;1.83;;;;;;;29.72;47.59;98666.38;2077605;28;20076;-50
2023/08/18 02:37:26;;;;;;;3.03;2.05;;;;;;;29.72;47.61;98664.47;2078641;28;20089;-51
2023/08/18 02:38:28;;;;;;;2.15;1.90;;;;;;;29.72;47.85;98666.38;2077872;28;20053;-51
2023/08/18 02:39:28;;;;;;;2.33;1.95;;;;;;;29.71;47.66;98659.31;2079789;28;20108;-50
2023/08/18 02:40:32;;;;;;;2.45;2.15;;;;;;;29.72;47.64;98660.94;2076236;28;20065;-54
2023/08/18 02:41:32;;;;;;;2.63;2.08;;;;;;;29.72;47.86;98660.94;2086566;28;20519;-50
2023/08/18 02:42:35;;;;;;;2.13;1.92;;;;;;;29.71;47.46;98657.38;2083254;28;20049;-50
2023/08/18 02:43:35;;;;;;;2.30;1.70;;;;;;;29.72;47.80;98663.66;2085131;28;20052;-53
2023/08/18 02:44:37;;;;;;;1.67;1.58;;;;;;;29.71;47.59;98657.38;2084133;28;20068;-51
2023/08/18 02:45:38;;;;;;;2.15;1.95;;;;;;;29.71;47.57;98656.56;2084892;28;20045;-54
2023/08/18 02:46:40;;;;;;;2.28;2.08;;;;;;;29.71;47.73;98651.09;2084538;28;20257;-51
2023/08/18 02:47:41;;;;;;;1.70;1.60;;;;;;;29.70;47.45;98652.19;2088628;28;20063;-53
2023/08/18 02:48:42;;;;;;;1.65;1.55;;;;;;;29.71;47.88;98657.38;2084703;28;20302;-53
2023/08/18 02:49:46;;;;;;;2.58;1.95;;;;;;;29.71;47.59;98656.56;2087568;28;20435;-51
2023/08/18 02:50:47;;;;;;;1.70;1.60;;;;;;;29.70;47.77;98663.09;2083610;28;20092;-53
2023/08/18 02:51:49;;;;;;;1.80;1.65;;;;;;;29.71;47.74;98656.56;2083982;28;20045;-54
2023/08/18 02:52:50;;;;;;;2.30;2.13;;;;;;;29.70;47.62;98660.38;2086690;28;20325;-53
2023/08/18 02:53:52;;;;;;;1.98;1.88;;;;;;;29.71;47.72;98659.31;2086060;28;20144;-52
2023/08/18 02:54:53;;;;;;;2.00;1.80;;;;;;;29.71;47.45;98662.84;2084567;28;20080;-54
2023/08/18 02:55:58;;;;;;;2.05;1.92;;;;;;;29.72;47.90;98658.19;2085340;28;20411;-51
2023/08/18 02:56:59;;;;;;;2.28;2.08;;;;;;;29.71;47.57;98664.75;2088967;28;20190;-53
2023/08/18 02:58:00;;;;;;;2.25;2.08;;;;;;;29.70;47.70;98661.22;2082740;28;20056;-50
2023/08/18 02:59:01;;;;;;;1.60;1.50;;;;;;;29.71;47.72;98664.75;2085960;28;20061;-52
2023/08/18 03:00:04;;;;;;;2.55;2.35;;;;;;;29.71;47.88;98664.75;2084732;28;21258;-51
2023/08/18 03:01:06;;;;;;;1.90;1.80;;;;;;;29.69;47.73;98665.03;2086464;28;20056;-52
2023/08/18 03:02:08;;;;;;;2.08;1.98;;;;;;;29.70;47.94;98671.31;2085748;28;20051;-51
2023/08/18 03:03:09;;;;;;;1.70;1.60;;;;;;;29.69;47.67;98666.94;2086215;28;20045;-54
2023/08/18 03:04:12;;;;;;;1.95;1.85;;;;;;;29.71;47.66;98667.50;2083509;28;20480;-50
2023/08/18 03:05:13;;;;;;;2.47;2.10;;;;;;;29.70;47.77;98668.56;2083680;28;20064;-53
2023/08/18 03:06:15;;;;;;;2.70;1.52;;;;;;;29.69;47.72;98664.22;2085241;28;20053;-51
2023/08/18 03:07:15;;;;;;;2.45;2.25;;;;;;;29.69;47.95;98667.75;2085208;28;20041;-50
2023/08/18 03:08:18;;;;;;;2.20;1.98;;;;;;;29.69;47.70;98670.50;2085921;28;20672;-50
2023/08/18 03:09:19;;;;;;;2.60;2.28;;;;;;;29.69;47.96;98672.41;2087333;28;20064;-51
2023/08/18 03:10:20;;;;;;;2.28;2.00;;;;;;;29.68;47.93;98668.06;2085569;28;20052;-52
2023/08/18 03:11:23;;;;;;;2.05;1.85;;;;;;;29.69;47.67;98669.69;2086688;28;20128;-52
2023/08/18 03:12:25;;;;;;;2.00;1.90;;;;;;;29.69;47.59;98664.22;2085399;28;20070;-51
2023/08/18 03:13:26;;;;;;;2.10;2.00;;;;;;;29.70;47.81;98666.69;2085044;28;20491;-50
2023/08/18 03:14:28;;;;;;;1.98;1.80;;;;;;;29.68;47.59;98665.31;2085196;28;20109;-51
2023/08/18 03:15:29;;;;;;;2.10;1.90;;;;;;;29.67;47.53;98663.66;2086112;28;20045;-50
2023/08/18 03:16:31;;;;;;;3.42;2.40;;;;;;;29.69;47.42;98664.22;2086008;28;20053;-52
2023/08/18 03:17:32;;;;;;;2.75;2.55;;;;;;;29.69;47.80;98659.56;2083560;28;20041;-53
2023/08/18 03:18:34;;;;;;;2.70;2.28;;;;;;;29.69;47.54;98664.22;2083670;28;20048;-50
2023/08/18 03:19:35;;;;;;;1.75;1.65;;;;;;;29.68;47.43;98651.66;2079313;28;20413;-56
2023/08/18 03:20:37;;;;;;;1.75;1.63;;;;;;;29.68;47.50;98657.13;2077551;28;20046;-52
2023/08/18 03:21:38;;;;;;;1.70;1.58;;;;;;;29.69;47.72;98656.00;2078129;28;20049;-54
2023/08/18 03:22:39;;;;;;;2.05;1.85;;;;;;;29.68;47.75;98652.47;2077625;28;20129;-50
2023/08/18 03:23:40;;;;;;;1.88;1.70;;;;;;;29.67;47.69;98642.63;2078012;28;20049;-54
2023/08/18 03:24:42;;;;;;;1.90;1.77;;;;;;;29.68;47.61;98651.66;2077862;28;20051;-50
2023/08/18 03:25:44;;;;;;;1.88;1.77;;;;;;;29.67;47.71;98645.38;2077795;28;20068;-50
2023/08/18 03:26:48;;;;;;;1.65;1.55;;;;;;;29.68;47.85;98646.19;2078279;28;20049;-50
2023/08/18 03:27:50;;;;;;;1.70;1.60;;;;;;;29.67;47.63;98641.78;2083143;28;20045;-54
2023/08/18 03:28:52;;;;;;;3.70;2.15;;;;;;;29.66;47.67;98643.72;2079837;28;20072;-50
2023/08/18 03:29:55;;;;;;;2.85;2.28;;;;;;;29.67;47.76;98641.78;2086445;28;20396;-54
2023/08/18 03:31:00;;;;;;;2.20;2.00;;;;;;;29.66;47.41;98643.72;2085905;28;20416;-51
2023/08/18 03:32:00;;;;;;;2.13;1.92;;;;;;;29.66;47.74;98640.16;2085411;28;20072;-53
2023/08/18 03:33:03;;;;;;;2.63;2.35;;;;;;;29.67;47.61;98644.53;2084744;28;20040;-54
2023/08/18 03:34:04;;;;;;;2.45;1.92;;;;;;;29.66;47.82;98637.44;2085841;28;20543;-52
2023/08/18 03:35:06;;;;;;;1.95;1.77;;;;;;;29.66;47.60;98632.78;2083954;28;20077;-51
2023/08/18 03:36:08;;;;;;;1.83;1.73;;;;;;;29.65;47.52;98633.06;2083343;28;20496;-50
2023/08/18 03:37:09;;;;;;;2.35;2.08;;;;;;;29.65;47.74;98622.16;2084070;28;20499;-50
2023/08/18 03:38:11;;;;;;;2.25;2.05;;;;;;;29.66;47.76;98621.03;2083999;28;20178;-53
2023/08/18 03:39:12;;;;;;;2.67;2.00;;;;;;;29.66;47.47;98618.31;2086048;28;20044;-50
2023/08/18 03:40:14;;;;;;;2.33;2.00;;;;;;;29.65;47.67;98622.97;2084597;28;20134;-53
2023/08/18 03:41:15;;;;;;;3.20;2.10;;;;;;;29.64;47.77;98623.22;2080007;28;20056;-50
2023/08/18 03:42:18;;;;;;;2.00;1.67;;;;;;;29.65;47.44;98613.94;2083098;28;20048;-50
2023/08/18 03:43:19;;;;;;;2.25;1.75;;;;;;;29.64;47.64;98621.31;2085157;28;20060;-51
2023/08/18 03:44:21;;;;;;;2.42;2.22;;;;;;;29.62;47.85;98621.56;2086124;28;20172;-49
2023/08/18 03:45:22;;;;;;;2.60;2.22;;;;;;;29.65;47.58;98624.88;2085460;28;20814;-49
2023/08/18 03:46:26;;;;;;;2.53;2.33;;;;;;;29.65;47.74;98620.22;2086541;28;20041;-50
2023/08/18 03:47:26;;;;;;;2.55;1.90;;;;;;;29.64;47.58;98621.31;2085151;28;20052;-52
2023/08/18 03:48:29;;;;;;;3.53;1.90;;;;;;;29.66;47.75;98621.03;2085452;28;20105;-52
2023/08/18 03:49:29;;;;;;;1.83;1.70;;;;;;;29.65;47.69;98627.59;2085350;28;20096;-50
2023/08/18 03:50:31;;;;;;;3.20;2.10;;;;;;;29.66;47.68;98623.78;2086654;28;20549;-52
2023/08/18 03:51:32;;;;;;;2.13;1.90;;;;;;;29.64;47.75;98623.22;2086103;28;20049;-50
2023/08/18 03:52:34;;;;;;;2.40;2.10;;;;;;;29.64;47.71;98629.50;2086577;28;20121;-49
2023/08/18 03:53:35;;;;;;;2.00;1.80;;;;;;;29.64;47.75;98625.94;2083936;28;20080;-51
2023/08/18 03:54:37;;;;;;;1.73;1.60;;;;;;;29.65;47.70;98631.16;2086028;28;20056;-52
2023/08/18 03:55:38;;;;;;;2.30;2.10;;;;;;;29.63;47.96;98630.59;2079679;28;20106;-54
2023/08/18 03:56:40;;;;;;;2.75;1.98;;;;;;;29.65;47.58;98630.34;2086608;28;20041;-50
2023/08/18 03:57:42;;;;;;;2.10;1.95;;;;;;;29.64;47.70;98634.97;2087093;28;20112;-53
2023/08/18 03:58:44;;;;;;;2.03;1.80;;;;;;;29.63;47.55;98627.88;2087996;28;20045;-53
2023/08/18 03:59:45;;;;;;;2.10;1.83;;;;;;;29.64;47.74;98628.69;2087148;28;20045;-49
2023/08/18 04:00:47;;;;;;;2.22;2.08;;;;;;;29.64;47.70;98639.63;2086780;28;20041;-52
2023/08/18 04:01:48;;;;;;;2.92;1.90;;;;;;;29.63;47.56;98627.88;2087965;28;20050;-52
2023/08/18 04:02:50;;;;;;;2.03;1.80;;;;;;;29.64;47.70;98634.16;2086926;28;20483;-50
2023/08/18 04:03:51;;;;;;;2.03;1.85;;;;;;;29.63;47.64;98633.34;2086799;28;20530;-52
2023/08/18 04:04:54;;;;;;;3.38;2.03;;;;;;;29.63;47.75;98641.53;2083632;28;20099;-53
2023/08/18 04:05:55;;;;;;;2.50;1.77;;;;;;;29.62;47.76;98635.22;2086219;28;20049;-54
2023/08/18 04:06:57;;;;;;;2.38;2.22;;;;;;;29.63;47.68;98641.53;2087689;28;20064;-53
2023/08/18 04:07:58;;;;;;;2.58;1.90;;;;;;;29.63;47.69;98641.53;2086706;28;20049;-54
2023/08/18 04:09:06;;;;;;;1.77;1.65;;;;;;;29.64;47.63;98647.81;2084373;28;20045;-53
2023/08/18 04:10:08;;;;;;;2.00;1.88;;;;;;;29.61;47.73;98652.72;2084376;28;20082;-51
2023/08/18 04:11:10;;;;;;;3.42;1.90;;;;;;;29.61;47.73;98652.72;2086058;28;20073;-53
2023/08/18 04:12:12;;;;;;;1.85;1.75;;;;;;;29.61;47.77;98663.66;2085421;28;20094;-51
2023/08/18 04:13:14;;;;;;;2.20;1.73;;;;;;;29.61;47.56;98660.09;2086897;28;20045;-52
2023/08/18 04:14:16;;;;;;;1.70;1.60;;;;;;;29.61;47.64;98668.28;2086747;28;20049;-53
2023/08/18 04:15:17;;;;;;;2.35;1.95;;;;;;;29.62;47.97;98669.94;2087309;28;21061;-50
2023/08/18 04:16:19;;;;;;;2.30;2.10;;;;;;;29.61;47.66;98673.75;2087333;28;20049;-52
2023/08/18 04:17:20;;;;;;;2.40;2.20;;;;;;;29.59;47.66;98668.59;2087679;28;20227;-50
2023/08/18 04:18:21;;;;;;;2.55;2.25;;;;;;;29.60;47.84;98672.13;2085424;28;20052;-54
2023/08/18 04:19:22;;;;;;;2.17;1.98;;;;;;;29.59;47.75;98667.75;2087190;28;20053;-51
2023/08/18 04:20:24;;;;;;;1.73;1.63;;;;;;;29.61;47.60;98671.88;2084786;28;20190;-51
2023/08/18 04:21:25;;;;;;;2.58;2.30;;;;;;;29.59;47.72;98667.75;2087566;28;20292;-52
2023/08/18 04:22:27;;;;;;;2.13;1.92;;;;;;;29.60;47.73;98666.66;2085574;28;20048;-52
2023/08/18 04:23:28;;;;;;;1.83;1.73;;;;;;;29.59;47.76;98668.59;2086737;28;20309;-51
2023/08/18 04:24:30;;;;;;;2.20;1.83;;;;;;;29.60;47.63;98672.13;2086546;28;20179;-51
2023/08/18 04:25:31;;;;;;;2.03;1.70;;;;;;;29.60;47.28;98683.06;2088810;28;20072;-55
2023/08/18 04:26:35;;;;;;;1.98;1.88;;;;;;;29.59;47.56;98668.59;2086220;28;20542;-51
2023/08/18 04:27:37;;;;;;;2.05;1.92;;;;;;;29.59;47.71;98675.97;2087006;28;20071;-50
2023/08/18 04:28:39;;;;;;;1.67;1.58;;;;;;;29.58;47.73;98675.13;2084055;28;20056;-52
2023/08/18 04:29:41;;;;;;;1.63;1.52;;;;;;;29.60;47.83;98677.59;2087297;28;20420;-54
2023/08/18 04:30:45;;;;;;;2.15;2.00;;;;;;;29.60;47.36;98674.88;2086875;28;20388;-52
2023/08/18 04:31:46;;;;;;;2.03;1.92;;;;;;;29.58;47.45;98680.59;2087055;28;20075;-54
2023/08/18 04:32:47;;;;;;;2.53;2.33;;;;;;;29.59;47.92;98670.50;2086892;28;20037;-54
2023/08/18 04:33:49;;;;;;;4.57;1.85;;;;;;;29.58;47.58;98675.13;2085974;28;20049;-53
2023/08/18 04:34:50;;;;;;;2.22;2.03;;;;;;;29.58;47.38;98675.13;2084521;28;20393;-52
2023/08/18 04:35:52;;;;;;;2.20;2.10;;;;;;;29.58;47.89;98680.59;2078186;28;20065;-51
2023/08/18 04:36:53;;;;;;;1.92;1.73;;;;;;;29.58;47.34;98674.31;2078502;28;20049;-50
2023/08/18 04:37:54;;;;;;;2.03;1.83;;;;;;;29.58;47.56;98677.84;2085531;28;20052;-54
2023/08/18 04:38:56;;;;;;;2.05;1.90;;;;;;;29.59;47.57;98689.63;2086170;28;20063;-52
2023/08/18 04:39:57;;;;;;;2.30;2.10;;;;;;;29.58;47.64;98686.06;2087860;28;20071;-50
2023/08/18 04:40:59;;;;;;;2.80;2.00;;;;;;;29.58;47.52;98682.50;2085203;28;20479;-54
2023/08/18 04:42:00;;;;;;;2.10;1.83;;;;;;;29.57;47.74;98689.06;2087602;28;20509;-54
2023/08/18 04:43:01;;;;;;;2.53;1.70;;;;;;;29.57;47.59;98687.16;2085406;28;20877;-53
2023/08/18 04:44:06;;;;;;;2.33;2.13;;;;;;;29.57;47.64;98689.88;2085446;28;20135;-52
2023/08/18 04:45:08;;;;;;;2.05;1.95;;;;;;;29.56;47.59;98685.53;2087684;28;20065;-50
2023/08/18 04:46:09;;;;;;;2.30;2.10;;;;;;;29.55;47.53;98689.34;2087318;28;20037;-53
2023/08/18 04:47:10;;;;;;;3.88;2.70;;;;;;;29.58;47.70;98694.25;2088183;28;20052;-50
2023/08/18 04:48:12;;;;;;;2.22;2.03;;;;;;;29.57;47.52;98694.53;2086876;28;20454;-54
2023/08/18 04:49:14;;;;;;;2.45;1.80;;;;;;;29.57;47.59;98694.53;2087922;28;20318;-51
2023/08/18 04:50:16;;;;;;;2.83;2.17;;;;;;;29.57;47.60;98694.53;2087653;28;20056;-49
2023/08/18 04:51:17;;;;;;;2.75;2.25;;;;;;;29.55;47.52;98685.78;2087244;28;20512;-50
2023/08/18 04:52:19;;;;;;;2.08;1.95;;;;;;;29.54;47.65;98684.97;2087028;28;20136;-53